4A5 weather

Searcy County Airport
Marshall, Arkansas, United States

Public forecast

Using degrees Fahrenheit for public forecast. Weather courtesy of forecast.io.

METAR (pilot weather report)

Closest report is Clinton Municipal Airport, 20.6 nm (38.2 km) SSE. Retrieved 2019/08/26 06:35 UTC (0 seconds ago):

KCCA 260635Z AUTO 00000KT 10SM SCT011 BKN024 OVC034 23/23 A2985 RMK AO2 LTG DSNT SE

TAF (pilot weather forecast)

Closest forecast is Ozark Regional Airport, 29.8 nm (55.1 km) NNE. Retrieved 2019/08/26 06:48 UTC (0 seconds ago):

TAF KBPK 260545Z 2606/2706 VRB03KT P6SM SCT006 OVC015 TEMPO 2606/2609 3/4SM BR BKN001 FM260900 14003KT 2SM BR OVC005 FM261500 17008KT P6SM SCT040 FM270000 16005KT P6SM VCTS SCT050CB BKN250